Time;durP1;ratioP1;P1;durP2;ratioP2;P2;SDS_P1;SDS_P2;PMS_P1;PMS_P2;Temp;Humidity;BMP_temperature;BMP_pressure;BME280_temperature;BME280_humidity;BME280_pressure;Samples;Min_cycle;Max_cycle;Signal;HPM_P1;HPM_P2
2024/01/22 00:01:44;;;;;;;1.83;1.10;;;5.50;99.90;;;;;;5097081;28;20193;-46
2024/01/22 00:04:09;;;;;;;1.87;1.30;;;5.40;99.90;;;;;;5097041;28;20315;-45
2024/01/22 00:06:39;;;;;;;2.93;1.57;;;5.50;99.90;;;;;;5096821;28;20707;-44
2024/01/22 00:09:05;;;;;;;0.97;0.90;;;5.50;99.90;;;;;;5096852;28;20206;-44
2024/01/22 00:11:40;;;;;;;2.63;1.10;;;5.50;99.90;;;;;;5096919;28;20212;-45
2024/01/22 00:14:05;;;;;;;2.73;0.87;;;5.50;99.90;;;;;;5096971;28;20185;-45
2024/01/22 00:16:32;;;;;;;1.10;0.97;;;5.60;99.90;;;;;;5096836;28;20294;-45
2024/01/22 00:18:57;;;;;;;2.97;1.17;;;5.60;99.90;;;;;;5096754;28;20175;-44
2024/01/22 00:21:23;;;;;;;1.47;1.07;;;5.60;99.90;;;;;;5097301;28;20194;-44
2024/01/22 00:23:48;;;;;;;1.10;1.00;;;5.70;99.90;;;;;;5097043;28;20545;-44
2024/01/22 00:26:19;;;;;;;2.13;1.03;;;5.70;99.90;;;;;;5096775;28;20584;-44
2024/01/22 00:28:47;;;;;;;1.50;0.87;;;5.80;99.90;;;;;;5096941;28;20178;-43
2024/01/22 00:31:13;;;;;;;1.87;1.13;;;5.80;99.90;;;;;;5096530;28;20631;-45
2024/01/22 00:33:38;;;;;;;1.70;1.00;;;5.90;99.90;;;;;;5095509;28;20254;-44
2024/01/22 00:36:06;;;;;;;1.73;1.17;;;5.90;99.90;;;;;;5096693;28;20521;-44
2024/01/22 00:38:31;;;;;;;2.83;1.50;;;5.90;99.90;;;;;;5096805;28;20190;-42
2024/01/22 00:40:57;;;;;;;1.03;0.70;;;6.00;99.90;;;;;;5096391;28;20180;-43
2024/01/22 00:43:26;;;;;;;1.93;0.90;;;6.00;99.90;;;;;;5095102;28;20180;-44
2024/01/22 00:45:51;;;;;;;1.33;1.10;;;6.00;99.90;;;;;;5095243;28;20210;-45
2024/01/22 00:48:17;;;;;;;1.10;0.93;;;6.00;99.90;;;;;;5095333;28;20180;-44
2024/01/22 00:50:43;;;;;;;2.40;0.80;;;6.10;99.90;;;;;;5096216;28;20283;-43
2024/01/22 00:53:11;;;;;;;0.63;0.43;;;6.10;99.90;;;;;;5095211;28;20683;-43
2024/01/22 00:55:40;;;;;;;2.73;1.10;;;6.10;99.90;;;;;;5096142;28;20212;-46
2024/01/22 00:58:06;;;;;;;3.50;1.53;;;6.20;99.90;;;;;;5096173;28;20701;-45
2024/01/22 01:00:31;;;;;;;1.63;1.00;;;6.20;99.90;;;;;;5096271;28;20172;-43
2024/01/22 01:02:57;;;;;;;0.67;0.60;;;6.30;99.90;;;;;;5096472;28;20183;-46
2024/01/22 01:05:26;;;;;;;1.03;0.93;;;6.20;99.90;;;;;;5096004;28;20203;-45
2024/01/22 01:07:54;;;;;;;3.07;1.70;;;6.30;99.90;;;;;;5095772;28;20184;-44
2024/01/22 01:10:22;;;;;;;4.43;1.40;;;6.30;99.90;;;;;;5094370;28;20227;-44
2024/01/22 01:12:48;;;;;;;2.77;1.13;;;6.30;99.90;;;;;;5096045;28;20179;-44
2024/01/22 01:15:14;;;;;;;1.60;1.13;;;6.40;99.90;;;;;;5095869;28;20666;-43
2024/01/22 01:17:40;;;;;;;1.03;0.93;;;6.40;99.90;;;;;;5095632;28;20539;-45
2024/01/22 01:20:06;;;;;;;1.13;0.93;;;6.40;99.90;;;;;;5077464;28;20180;-44
2024/01/22 01:22:35;;;;;;;0.70;0.70;;;6.50;99.90;;;;;;5095738;28;20181;-45
2024/01/22 01:25:01;;;;;;;4.43;1.30;;;6.50;99.90;;;;;;5095777;28;20171;-43
2024/01/22 01:27:29;;;;;;;1.33;0.80;;;6.40;99.90;;;;;;5095708;28;20266;-45
2024/01/22 01:29:55;;;;;;;0.77;0.77;;;6.40;99.90;;;;;;5095534;28;20196;-43
2024/01/22 01:32:21;;;;;;;1.23;0.97;;;6.50;99.90;;;;;;5095368;28;20564;-44
2024/01/22 01:34:55;;;;;;;2.27;1.07;;;6.50;99.90;;;;;;5095628;28;20181;-46
2024/01/22 01:37:21;;;;;;;1.63;0.77;;;6.60;99.90;;;;;;5095439;28;20200;-45
2024/01/22 01:43:09;;;;;;;1.43;0.97;;;6.70;99.90;;;;;;5095163;28;20644;-46
2024/01/22 01:45:35;;;;;;;1.50;1.03;;;6.70;99.90;;;;;;5095060;28;20205;-46
2024/01/22 01:48:01;;;;;;;0.93;0.90;;;6.80;99.90;;;;;;5094108;28;20240;-43
2024/01/22 01:50:31;;;;;;;2.13;1.27;;;6.80;99.90;;;;;;5094819;28;20204;-45
2024/01/22 01:53:00;;;;;;;0.70;0.70;;;6.80;99.90;;;;;;5095028;28;20272;-45
2024/01/22 01:55:27;;;;;;;2.90;1.13;;;6.90;99.90;;;;;;5093641;28;20725;-45
2024/01/22 01:58:02;;;;;;;1.00;0.83;;;7.00;99.90;;;;;;5094944;28;20230;-44
2024/01/22 02:00:28;;;;;;;1.43;0.97;;;7.00;99.90;;;;;;5095074;28;20244;-44
2024/01/22 02:02:54;;;;;;;2.07;0.90;;;7.10;99.90;;;;;;5094646;28;20187;-44
2024/01/22 02:05:20;;;;;;;1.27;0.80;;;7.20;99.90;;;;;;5093915;28;20570;-46
2024/01/22 02:07:46;;;;;;;1.03;0.90;;;7.30;99.90;;;;;;5094728;28;20257;-45
2024/01/22 02:10:26;;;;;;;2.57;1.17;;;7.40;99.90;;;;;;5094471;28;20298;-46
2024/01/22 02:13:04;;;;;;;2.03;1.17;;;7.40;99.90;;;;;;5093892;28;20190;-45
2024/01/22 02:15:30;;;;;;;2.23;0.97;;;7.50;99.90;;;;;;5094725;28;20227;-45
2024/01/22 02:18:00;;;;;;;2.80;1.00;;;7.50;99.90;;;;;;5094516;28;20173;-46
2024/01/22 02:20:26;;;;;;;3.30;1.00;;;7.50;99.90;;;;;;5092997;28;20217;-46
2024/01/22 02:22:54;;;;;;;1.23;0.90;;;7.60;99.90;;;;;;5094337;28;20212;-47
2024/01/22 02:25:21;;;;;;;1.70;0.93;;;7.60;99.90;;;;;;5094580;28;20235;-46
2024/01/22 02:27:47;;;;;;;1.53;0.83;;;7.80;99.90;;;;;;5094586;28;20193;-47
2024/01/22 02:30:12;;;;;;;0.73;0.70;;;7.80;99.90;;;;;;5093556;28;20210;-45
2024/01/22 02:32:38;;;;;;;1.13;1.03;;;7.80;99.90;;;;;;5093228;28;20185;-47
2024/01/22 02:35:04;;;;;;;0.60;0.60;;;7.90;99.90;;;;;;5094466;28;20181;-44
2024/01/22 02:37:33;;;;;;;1.63;0.87;;;7.90;99.90;;;;;;5094343;28;20217;-46
2024/01/22 02:39:58;;;;;;;4.10;0.90;;;8.00;99.90;;;;;;5093285;28;20189;-45
2024/01/22 02:42:25;;;;;;;0.70;0.70;;;8.00;99.90;;;;;;5094086;28;20300;-47
2024/01/22 02:44:50;;;;;;;1.57;1.23;;;10.10;99.90;;;;;;5094000;28;20262;-46
2024/01/22 02:47:18;;;;;;;0.90;0.70;;;8.10;99.90;;;;;;5094184;28;20297;-46
2024/01/22 02:49:43;;;;;;;2.10;1.20;;;8.10;99.90;;;;;;5094311;28;20251;-47
2024/01/22 02:52:09;;;;;;;1.10;0.90;;;8.00;99.90;;;;;;5092583;28;20673;-47
2024/01/22 02:54:35;;;;;;;1.13;0.80;;;7.90;99.90;;;;;;5094794;28;20177;-49
2024/01/22 02:57:02;;;;;;;1.07;0.97;;;7.90;99.90;;;;;;5094165;28;20206;-45
2024/01/22 02:59:28;;;;;;;0.47;0.47;;;8.00;99.90;;;;;;5093859;28;20221;-46
2024/01/22 03:01:53;;;;;;;0.90;0.60;;;8.00;99.90;;;;;;5094084;28;20185;-45
2024/01/22 03:04:19;;;;;;;1.10;0.97;;;8.10;99.90;;;;;;5093721;28;20610;-45
2024/01/22 03:06:50;;;;;;;1.93;0.90;;;8.20;99.90;;;;;;5075597;28;20234;-43
2024/01/22 03:09:17;;;;;;;1.23;0.83;;;8.20;99.90;;;;;;5093885;28;20186;-43
2024/01/22 03:11:43;;;;;;;1.30;0.80;;;8.30;99.90;;;;;;5092432;28;20251;-46
2024/01/22 03:14:08;;;;;;;1.57;0.80;;;8.50;99.90;;;;;;5093589;28;20258;-45
2024/01/22 03:16:34;;;;;;;1.30;1.00;;;8.60;99.90;;;;;;5093774;28;20203;-45
2024/01/22 03:23:19;;;;;;;0.80;0.80;;;8.70;99.90;;;;;;5093568;28;20196;-47
2024/01/22 03:25:46;;;;;;;0.53;0.50;;;8.80;99.90;;;;;;5112346;28;20205;-45
2024/01/22 03:28:14;;;;;;;1.20;0.87;;;8.90;99.90;;;;;;5113773;28;20174;-44
2024/01/22 03:30:41;;;;;;;0.80;0.73;;;9.00;99.90;;;;;;5113699;28;20255;-46
2024/01/22 03:33:08;;;;;;;1.50;0.70;;;9.00;99.90;;;;;;5111685;28;20280;-44
2024/01/22 03:35:34;;;;;;;0.60;0.60;;;9.00;99.90;;;;;;5113651;28;20594;-46
2024/01/22 03:37:59;;;;;;;2.00;0.60;;;9.00;99.90;;;;;;5113916;28;20170;-45
2024/01/22 03:40:25;;;;;;;2.40;0.97;;;9.00;99.90;;;;;;5113989;28;20279;-43
2024/01/22 03:42:51;;;;;;;0.87;0.77;;;8.90;99.90;;;;;;5113909;28;20181;-44
2024/01/22 03:45:16;;;;;;;0.53;0.53;;;8.90;99.90;;;;;;5095301;28;20178;-42
2024/01/22 03:48:25;;;;;;;0.57;0.57;;;8.80;99.90;;;;;;5113841;28;20186;-45
2024/01/22 03:50:53;;;;;;;0.43;0.43;;;8.80;99.90;;;;;;5113385;28;20791;-43
2024/01/22 03:53:20;;;;;;;0.83;0.60;;;8.80;99.90;;;;;;5095937;28;20209;-45
2024/01/22 03:55:46;;;;;;;0.63;0.63;;;8.90;99.90;;;;;;5095781;28;20202;-45
2024/01/22 03:58:11;;;;;;;0.50;0.50;;;8.90;99.90;;;;;;5113733;28;20182;-44
2024/01/22 04:04:04;;;;;;;0.60;0.60;;;9.00;99.90;;;;;;5113729;28;20170;-46
2024/01/22 04:06:29;;;;;;;2.47;1.27;;;8.90;99.90;;;;;;5095502;28;20206;-45
2024/01/22 04:08:55;;;;;;;0.70;0.70;;;9.00;99.90;;;;;;5113546;28;20294;-45
2024/01/22 04:11:21;;;;;;;0.50;0.50;;;8.90;99.90;;;;;;5113538;28;20197;-46
2024/01/22 04:13:46;;;;;;;2.20;0.90;;;9.00;99.90;;;;;;5113575;28;20635;-46
2024/01/22 04:16:15;;;;;;;2.83;1.07;;;9.00;99.90;;;;;;5113346;28;20211;-45
2024/01/22 04:18:41;;;;;;;0.77;0.73;;;9.00;99.90;;;;;;5113821;28;20172;-46
2024/01/22 04:21:07;;;;;;;0.50;0.50;;;9.00;99.90;;;;;;5113288;28;20175;-46
2024/01/22 04:23:36;;;;;;;0.40;0.40;;;9.00;99.90;;;;;;5113566;28;20159;-45
2024/01/22 04:26:06;;;;;;;0.63;0.50;;;9.00;99.90;;;;;;5116677;28;20658;-45
2024/01/22 04:28:31;;;;;;;0.90;0.60;;;9.00;99.90;;;;;;5116964;28;20665;-46
2024/01/22 04:30:57;;;;;;;1.30;0.60;;;9.00;99.90;;;;;;5117270;28;20202;-45
2024/01/22 04:33:22;;;;;;;0.40;0.40;;;9.00;99.90;;;;;;5116902;28;20182;-45
2024/01/22 04:35:49;;;;;;;0.83;0.60;;;9.00;99.90;;;;;;5117382;28;20198;-46
2024/01/22 04:38:21;;;;;;;0.63;0.63;;;9.00;99.90;;;;;;5098845;28;20668;-47
2024/01/22 04:41:42;;;;;;;0.73;0.50;;;9.00;99.90;;;;;;5116812;28;20178;-46
2024/01/22 04:44:08;;;;;;;0.40;0.40;;;9.10;99.90;;;;;;5116879;28;20174;-46
2024/01/22 04:46:33;;;;;;;0.60;0.60;;;9.20;99.90;;;;;;5098386;28;20552;-46
2024/01/22 04:48:59;;;;;;;0.50;0.50;;;9.20;99.90;;;;;;5116597;28;20170;-45
2024/01/22 04:51:25;;;;;;;0.80;0.70;;;9.30;99.90;;;;;;5116497;28;20215;-46
2024/01/22 04:53:50;;;;;;;0.50;0.50;;;9.30;99.90;;;;;;5116547;28;20181;-45
2024/01/22 04:56:17;;;;;;;1.03;0.67;;;9.50;99.90;;;;;;5098210;28;20208;-45
2024/01/22 04:58:43;;;;;;;0.30;0.30;;;9.60;99.90;;;;;;5116314;28;20660;-46
2024/01/22 05:01:13;;;;;;;0.53;0.50;;;9.70;99.90;;;;;;5098279;28;20175;-47
2024/01/22 05:03:38;;;;;;;1.20;0.57;;;9.80;99.90;;;;;;5116306;28;20193;-46
2024/01/22 05:06:04;;;;;;;1.40;0.50;;;9.80;99.90;;;;;;5116261;28;20195;-48
2024/01/22 05:08:29;;;;;;;0.60;0.57;;;9.90;99.90;;;;;;5116366;28;20189;-46
2024/01/22 05:10:58;;;;;;;0.53;0.53;;;9.90;99.90;;;;;;5116658;28;20225;-45
2024/01/22 05:13:27;;;;;;;0.60;0.50;;;9.90;99.90;;;;;;5116148;28;20643;-46
2024/01/22 05:15:56;;;;;;;1.57;0.50;;;9.90;99.90;;;;;;5115983;28;20201;-46
2024/01/22 05:18:21;;;;;;;0.57;0.40;;;9.90;99.90;;;;;;5097824;28;20273;-46
2024/01/22 05:20:47;;;;;;;0.40;0.40;;;9.90;99.90;;;;;;5116258;28;20249;-45
2024/01/22 05:23:13;;;;;;;2.77;0.60;;;9.90;99.90;;;;;;5116193;28;20187;-46
2024/01/22 05:25:39;;;;;;;0.40;0.40;;;10.00;99.90;;;;;;5115450;28;20235;-47
2024/01/22 05:28:14;;;;;;;0.50;0.50;;;9.90;99.90;;;;;;5116233;28;20657;-46
2024/01/22 05:30:41;;;;;;;0.50;0.50;;;10.00;99.90;;;;;;5099436;28;20229;-48
2024/01/22 05:33:06;;;;;;;0.67;0.60;;;9.90;99.90;;;;;;5098066;28;20185;-49
2024/01/22 05:35:34;;;;;;;0.40;0.40;;;10.00;99.90;;;;;;5115155;28;20194;-48
2024/01/22 05:37:59;;;;;;;1.33;0.60;;;10.00;99.90;;;;;;5115385;28;20645;-47
2024/01/22 05:40:25;;;;;;;0.30;0.30;;;10.10;99.90;;;;;;5115618;28;20183;-48
2024/01/22 05:42:53;;;;;;;2.57;0.63;;;10.20;99.90;;;;;;5097441;28;20183;-49
2024/01/22 05:45:19;;;;;;;2.53;0.53;;;10.30;99.90;;;;;;5115709;28;20198;-49
2024/01/22 05:47:45;;;;;;;1.80;0.63;;;10.30;99.90;;;;;;5097448;28;20232;-49
2024/01/22 05:50:11;;;;;;;0.50;0.50;;;10.40;99.90;;;;;;5115334;28;20210;-49
2024/01/22 05:52:36;;;;;;;0.40;0.30;;;10.40;99.90;;;;;;5097677;28;20179;-48
2024/01/22 05:55:02;;;;;;;0.50;0.40;;;10.40;99.90;;;;;;5115443;28;20167;-48
2024/01/22 05:57:31;;;;;;;0.40;0.40;;;10.40;99.90;;;;;;5114569;28;20583;-49
2024/01/22 05:59:56;;;;;;;0.40;0.37;;;10.40;99.90;;;;;;5097156;28;20528;-49
2024/01/22 06:02:22;;;;;;;0.20;0.20;;;10.40;99.90;;;;;;5115152;28;20256;-48
2024/01/22 06:04:48;;;;;;;0.23;0.23;;;10.40;99.90;;;;;;5115629;28;20565;-49
2024/01/22 06:07:13;;;;;;;0.30;0.30;;;10.40;99.90;;;;;;5114973;28;20189;-50
2024/01/22 06:09:39;;;;;;;0.53;0.40;;;10.40;99.90;;;;;;5096862;28;20617;-49
2024/01/22 06:12:06;;;;;;;0.33;0.33;;;10.40;99.90;;;;;;5096694;28;20597;-49
2024/01/22 06:14:35;;;;;;;0.60;0.40;;;10.40;99.90;;;;;;5114948;28;20162;-49
2024/01/22 06:17:01;;;;;;;0.40;0.40;;;10.40;99.90;;;;;;5114901;28;20204;-49
2024/01/22 06:19:26;;;;;;;0.33;0.33;;;10.50;99.90;;;;;;5096952;28;20176;-49
2024/01/22 06:21:52;;;;;;;0.60;0.40;;;10.50;99.90;;;;;;5096951;28;20188;-49
2024/01/22 06:24:18;;;;;;;1.13;0.30;;;10.50;99.90;;;;;;5114940;28;20257;-49
2024/01/22 06:26:43;;;;;;;0.30;0.30;;;10.50;99.90;;;;;;5097085;28;20279;-49
2024/01/22 06:29:13;;;;;;;0.63;0.57;;;10.50;99.90;;;;;;5096665;28;20188;-49
2024/01/22 06:31:41;;;;;;;1.43;0.20;;;10.50;99.90;;;;;;5114876;28;20230;-49
2024/01/22 06:34:08;;;;;;;0.77;0.30;;;10.50;99.90;;;;;;5114768;28;20178;-48
2024/01/22 06:36:34;;;;;;;0.70;0.40;;;10.50;99.90;;;;;;5114974;28;20585;-47
2024/01/22 06:39:03;;;;;;;1.10;0.60;;;10.50;99.90;;;;;;5114683;28;20200;-49
2024/01/22 06:41:32;;;;;;;0.37;0.37;;;10.60;99.90;;;;;;5114694;28;20185;-49
2024/01/22 06:43:58;;;;;;;0.30;0.30;;;10.60;99.90;;;;;;5096691;28;20187;-49
2024/01/22 06:46:27;;;;;;;0.33;0.27;;;10.60;99.90;;;;;;5114273;28;20206;-50
2024/01/22 06:48:52;;;;;;;0.47;0.47;;;10.60;99.90;;;;;;5113991;28;20196;-49
2024/01/22 06:51:18;;;;;;;1.43;0.50;;;10.60;99.90;;;;;;5114440;28;20202;-49
2024/01/22 06:53:44;;;;;;;0.80;0.60;;;11.10;99.90;;;;;;5114468;28;20209;-49
2024/01/22 06:56:09;;;;;;;0.50;0.50;;;10.60;99.90;;;;;;5114045;28;20191;-50
2024/01/22 06:58:36;;;;;;;0.30;0.30;;;10.70;99.90;;;;;;5114387;28;20185;-49
2024/01/22 07:01:04;;;;;;;0.43;0.43;;;10.70;99.90;;;;;;5113145;28;20197;-50
2024/01/22 07:03:30;;;;;;;0.93;0.60;;;11.20;99.90;;;;;;5114007;28;20599;-49
2024/01/22 07:05:56;;;;;;;0.50;0.50;;;10.80;99.90;;;;;;5113909;28;20251;-49
2024/01/22 07:08:22;;;;;;;0.30;0.30;;;10.80;99.90;;;;;;5113746;28;20186;-49
2024/01/22 07:10:51;;;;;;;0.40;0.30;;;10.70;99.90;;;;;;5114699;28;20205;-49
2024/01/22 07:13:17;;;;;;;2.83;0.70;;;10.70;99.90;;;;;;5096184;28;20238;-49
2024/01/22 07:15:46;;;;;;;0.60;0.53;;;10.60;99.90;;;;;;5095801;28;20200;-49
2024/01/22 07:18:12;;;;;;;0.70;0.40;;;10.70;99.90;;;;;;5114095;28;20181;-49
2024/01/22 07:20:50;;;;;;;1.50;0.50;;;10.60;99.90;;;;;;5113353;28;20193;-51
2024/01/22 07:23:19;;;;;;;1.60;0.50;;;10.70;99.90;;;;;;5114041;28;20255;-49
2024/01/22 07:25:45;;;;;;;0.80;0.40;;;10.70;99.90;;;;;;5113985;28;20605;-51
2024/01/22 07:28:11;;;;;;;0.50;0.50;;;10.70;99.90;;;;;;5113788;28;20235;-49
2024/01/22 07:30:39;;;;;;;0.63;0.50;;;10.60;99.90;;;;;;5113627;28;20243;-50
2024/01/22 07:33:05;;;;;;;0.50;0.50;;;10.50;99.90;;;;;;5113934;28;20181;-49
2024/01/22 07:35:32;;;;;;;1.60;0.47;;;10.40;99.90;;;;;;5113583;28;20226;-51
2024/01/22 07:37:58;;;;;;;1.60;0.67;;;10.30;99.90;;;;;;5113655;28;20174;-49
2024/01/22 07:40:24;;;;;;;0.93;0.40;;;10.30;99.90;;;;;;5095721;28;20581;-50
2024/01/22 07:42:51;;;;;;;2.37;0.50;;;10.20;99.90;;;;;;5113873;28;20253;-51
2024/01/22 07:45:16;;;;;;;0.30;0.30;;;10.10;99.90;;;;;;5095263;28;20170;-50
2024/01/22 07:47:43;;;;;;;5.10;0.30;;;10.00;99.90;;;;;;5113827;28;20640;-50
2024/01/22 07:50:13;;;;;;;1.67;0.50;;;10.00;99.90;;;;;;5113568;28;20197;-48
2024/01/22 07:52:40;;;;;;;0.87;0.47;;;10.00;99.90;;;;;;5096379;28;20165;-50
2024/01/22 07:55:06;;;;;;;1.00;0.60;;;10.00;99.90;;;;;;5113703;28;20174;-51
2024/01/22 07:57:32;;;;;;;0.50;0.47;;;9.90;99.90;;;;;;5113438;28;20178;-51
2024/01/22 08:00:02;;;;;;;0.30;0.30;;;9.90;99.90;;;;;;5115120;28;20178;-48
2024/01/22 08:02:27;;;;;;;0.53;0.50;;;9.90;99.90;;;;;;5117419;28;20185;-49
2024/01/22 08:04:53;;;;;;;0.40;0.40;;;9.90;99.90;;;;;;5117434;28;20166;-50
2024/01/22 08:07:22;;;;;;;1.30;0.50;;;9.90;99.90;;;;;;5099260;28;20208;-51
2024/01/22 08:09:48;;;;;;;0.60;0.40;;;10.00;99.90;;;;;;5117304;28;20216;-51
2024/01/22 08:12:13;;;;;;;0.63;0.63;;;10.00;99.90;;;;;;5117204;28;20200;-51
2024/01/22 08:14:39;;;;;;;1.77;0.57;;;10.00;99.90;;;;;;5117206;28;20175;-50
2024/01/22 08:17:05;;;;;;;0.60;0.40;;;10.00;99.90;;;;;;5117162;28;20190;-50
2024/01/22 08:19:33;;;;;;;0.93;0.60;;;9.90;99.90;;;;;;5117351;28;20549;-50
2024/01/22 08:21:59;;;;;;;1.77;0.70;;;10.00;99.90;;;;;;5117625;28;20181;-50
2024/01/22 08:24:25;;;;;;;0.67;0.50;;;10.00;99.90;;;;;;5117328;28;20185;-52
2024/01/22 08:26:57;;;;;;;0.93;0.50;;;10.00;99.90;;;;;;5117947;28;20198;-49
2024/01/22 08:29:25;;;;;;;0.50;0.50;;;10.00;99.90;;;;;;5117179;28;20188;-49
2024/01/22 08:31:52;;;;;;;0.50;0.40;;;10.00;99.90;;;;;;5116845;28;20557;-49
2024/01/22 08:34:18;;;;;;;0.53;0.40;;;10.10;99.90;;;;;;5099165;28;20193;-47
2024/01/22 08:36:44;;;;;;;1.50;0.80;;;10.10;99.90;;;;;;5116859;28;20191;-51
2024/01/22 08:39:09;;;;;;;1.37;0.70;;;10.20;99.90;;;;;;5116786;28;20171;-48
2024/01/22 08:41:39;;;;;;;0.50;0.50;;;10.20;99.90;;;;;;5117064;28;20176;-51
2024/01/22 08:44:05;;;;;;;2.03;0.80;;;10.20;99.90;;;;;;5116916;28;20185;-49
2024/01/22 08:46:32;;;;;;;1.30;0.70;;;10.20;99.90;;;;;;5116888;28;20208;-48
2024/01/22 08:48:58;;;;;;;1.73;0.60;;;10.30;99.90;;;;;;5116836;28;20184;-49
2024/01/22 08:51:23;;;;;;;5.20;0.70;;;10.30;99.90;;;;;;5116776;28;20301;-49
2024/01/22 08:53:49;;;;;;;1.77;0.50;;;10.30;99.90;;;;;;5116408;28;20178;-49
2024/01/22 08:56:15;;;;;;;0.73;0.60;;;10.40;99.90;;;;;;5098271;28;20542;-48
2024/01/22 08:58:40;;;;;;;2.50;0.53;;;10.50;99.90;;;;;;5098135;28;20592;-47
2024/01/22 09:01:06;;;;;;;2.43;0.87;;;10.50;99.90;;;;;;5098495;28;20182;-48
2024/01/22 09:03:32;;;;;;;2.47;0.90;;;10.60;99.90;;;;;;5116565;28;20178;-48
2024/01/22 09:06:03;;;;;;;1.53;0.57;;;10.60;99.90;;;;;;5098051;28;20217;-49
2024/01/22 09:08:29;;;;;;;2.43;0.80;;;10.70;99.90;;;;;;5116547;28;20186;-50
2024/01/22 09:10:54;;;;;;;4.27;1.10;;;10.80;99.90;;;;;;5116281;28;20714;-48
2024/01/22 09:13:23;;;;;;;1.53;0.77;;;10.80;99.90;;;;;;5116073;28;20177;-51
2024/01/22 09:15:49;;;;;;;2.13;0.77;;;10.80;99.90;;;;;;5116258;28;20202;-48
2024/01/22 09:18:15;;;;;;;4.67;1.10;;;10.90;99.90;;;;;;5097973;28;20174;-49
2024/01/22 09:20:41;;;;;;;3.53;0.97;;;10.90;99.90;;;;;;5098128;28;20185;-49
2024/01/22 09:23:09;;;;;;;2.53;0.87;;;11.00;99.90;;;;;;5116014;28;20178;-49
2024/01/22 09:25:40;;;;;;;2.10;0.80;;;11.00;99.90;;;;;;5115836;28;20214;-48
2024/01/22 09:28:06;;;;;;;3.50;0.83;;;11.10;99.90;;;;;;5116041;28;20160;-48
2024/01/22 09:30:32;;;;;;;2.53;0.90;;;11.20;99.90;;;;;;5115980;28;20205;-49
2024/01/22 09:32:58;;;;;;;5.27;1.07;;;11.20;99.90;;;;;;5115726;28;20248;-48
2024/01/22 09:35:24;;;;;;;1.90;0.40;;;11.30;99.90;;;;;;5097646;28;20232;-48
2024/01/22 09:37:50;;;;;;;2.53;1.00;;;11.30;99.90;;;;;;5097713;28;20210;-50
2024/01/22 09:40:15;;;;;;;9.27;1.20;;;11.30;99.90;;;;;;5115904;28;20181;-48
2024/01/22 09:42:42;;;;;;;4.70;0.97;;;11.40;99.90;;;;;;5097729;28;20692;-49
2024/01/22 09:45:09;;;;;;;2.37;0.90;;;11.40;99.90;;;;;;5097178;28;20649;-49
2024/01/22 09:47:37;;;;;;;4.93;0.97;;;11.40;99.90;;;;;;5097218;28;20174;-48
2024/01/22 09:50:05;;;;;;;2.70;1.30;;;11.50;99.90;;;;;;5115288;28;20166;-49
2024/01/22 09:52:33;;;;;;;5.73;1.80;;;11.50;99.90;;;;;;5115593;28;20174;-49
2024/01/22 09:54:59;;;;;;;7.37;1.33;;;11.50;99.90;;;;;;5115628;28;20596;-52
2024/01/22 09:57:27;;;;;;;3.27;1.13;;;11.50;99.90;;;;;;5115525;28;20174;-50
2024/01/22 09:59:54;;;;;;;3.47;1.33;;;11.50;99.90;;;;;;5096995;28;20190;-48
2024/01/22 10:02:21;;;;;;;3.43;1.23;;;11.60;99.90;;;;;;5112444;28;20201;-50
2024/01/22 10:04:48;;;;;;;5.23;1.60;;;11.60;99.90;;;;;;5115216;28;20667;-50
2024/01/22 10:07:14;;;;;;;3.20;1.10;;;11.60;99.90;;;;;;5114991;28;20194;-50
2024/01/22 10:09:41;;;;;;;3.87;0.77;;;11.70;99.90;;;;;;5115080;28;20185;-50
2024/01/22 10:12:07;;;;;;;1.83;0.57;;;11.70;99.90;;;;;;5097237;28;20202;-50
2024/01/22 10:14:42;;;;;;;2.40;1.00;;;11.70;99.90;;;;;;5096910;28;20235;-50
2024/01/22 10:17:25;;;;;;;5.30;1.00;;;11.70;99.90;;;;;;5115085;28;20196;-51
2024/01/22 10:20:07;;;;;;;5.63;1.30;;;11.70;99.90;;;;;;5114809;28;20155;-49
2024/01/22 10:22:33;;;;;;;1.60;0.70;;;11.70;99.90;;;;;;5114560;28;20185;-48
2024/01/22 10:25:02;;;;;;;1.50;0.70;;;11.80;99.90;;;;;;5112780;28;20649;-49
2024/01/22 10:27:29;;;;;;;1.33;0.60;;;11.70;99.90;;;;;;5114970;28;20587;-49
2024/01/22 10:30:14;;;;;;;1.70;0.77;;;11.80;99.90;;;;;;5096636;28;20187;-48
2024/01/22 10:32:42;;;;;;;1.33;0.57;;;11.80;99.90;;;;;;5096358;28;20271;-49
2024/01/22 10:35:22;;;;;;;2.83;0.80;;;11.80;99.90;;;;;;5114508;28;20335;-50
2024/01/22 10:38:09;;;;;;;1.97;0.50;;;11.80;99.90;;;;;;5096809;28;20190;-50
2024/01/22 10:40:38;;;;;;;0.60;0.50;;;11.80;99.90;;;;;;5113056;28;20186;-49
2024/01/22 10:43:26;;;;;;;1.60;0.50;;;11.80;99.90;;;;;;5114676;28;20261;-51
2024/01/22 10:45:53;;;;;;;2.00;0.57;;;11.80;99.90;;;;;;5096656;28;20208;-50
2024/01/22 10:48:23;;;;;;;1.80;0.50;;;11.70;99.90;;;;;;5096661;28;20194;-49
2024/01/22 10:50:51;;;;;;;0.40;0.20;;;11.70;99.90;;;;;;5114539;28;20194;-51
2024/01/22 10:53:16;;;;;;;0.40;0.40;;;11.70;99.90;;;;;;5096473;28;20654;-50
2024/01/22 10:56:00;;;;;;;1.63;0.60;;;11.70;99.90;;;;;;5114138;28;20209;-49
2024/01/22 10:58:27;;;;;;;0.97;0.70;;;11.70;99.90;;;;;;5114516;28;20518;-50
2024/01/22 11:01:01;;;;;;;1.37;0.60;;;11.70;99.90;;;;;;5114014;28;20185;-49
2024/01/22 11:03:30;;;;;;;4.00;0.93;;;11.70;99.90;;;;;;5114021;28;20184;-52
2024/01/22 11:06:01;;;;;;;1.40;0.60;;;11.80;99.90;;;;;;5096530;28;20205;-51
2024/01/22 11:08:35;;;;;;;1.13;0.70;;;11.80;99.90;;;;;;5114227;28;20270;-50
2024/01/22 11:11:04;;;;;;;3.13;0.80;;;11.80;99.90;;;;;;5114229;28;20200;-50
2024/01/22 11:13:30;;;;;;;2.40;0.67;;;11.80;99.90;;;;;;5095977;28;20186;-51
2024/01/22 11:15:56;;;;;;;3.40;0.80;;;11.80;99.90;;;;;;5096096;28;20206;-51
2024/01/22 11:18:23;;;;;;;2.90;0.60;;;11.80;99.90;;;;;;5095951;28;20247;-51
2024/01/22 11:21:09;;;;;;;1.37;0.53;;;11.80;99.90;;;;;;5113854;28;20189;-51
2024/01/22 11:23:35;;;;;;;1.80;0.43;;;11.70;99.90;;;;;;5098741;28;20549;-51
2024/01/22 11:26:14;;;;;;;0.60;0.40;;;11.70;99.90;;;;;;5113720;28;20280;-51
2024/01/22 11:29:07;;;;;;;0.87;0.40;;;11.70;99.90;;;;;;5098669;28;20269;-49
2024/01/22 11:31:35;;;;;;;0.77;0.57;;;11.60;99.90;;;;;;5114007;28;20218;-48
2024/01/22 11:34:00;;;;;;;1.10;0.50;;;11.50;99.90;;;;;;5114066;28;20175;-50
2024/01/22 11:36:55;;;;;;;0.80;0.60;;;11.50;99.90;;;;;;5118227;28;20194;-50
2024/01/22 11:39:46;;;;;;;5.10;0.80;;;11.50;99.90;;;;;;5100352;28;20182;-50
2024/01/22 11:42:22;;;;;;;1.43;0.67;;;11.50;99.90;;;;;;5108355;28;20210;-51
2024/01/22 11:44:50;;;;;;;1.80;0.50;;;11.40;99.90;;;;;;5118125;28;20530;-49
2024/01/22 11:47:18;;;;;;;2.30;0.63;;;11.40;99.90;;;;;;5118019;28;20194;-48
2024/01/22 11:49:44;;;;;;;4.90;0.70;;;11.40;99.90;;;;;;5099716;28;20182;-49
2024/01/22 11:52:17;;;;;;;3.00;1.03;;;11.40;99.90;;;;;;5117257;28;20665;-49
2024/01/22 11:54:57;;;;;;;6.00;0.53;;;11.40;99.90;;;;;;5117964;28;20154;-49
2024/01/22 11:57:24;;;;;;;2.47;0.50;;;11.40;99.90;;;;;;5117592;28;20202;-50
2024/01/22 12:00:10;;;;;;;1.30;0.60;;;11.30;99.90;;;;;;5117633;28;20174;-50
2024/01/22 12:02:41;;;;;;;2.30;0.50;;;11.40;99.90;;;;;;5099487;28;20186;-49
2024/01/22 12:05:12;;;;;;;5.63;1.13;;;11.40;99.90;;;;;;5099549;28;20200;-49
2024/01/22 12:07:42;;;;;;;1.70;0.67;;;11.50;99.90;;;;;;5099285;28;20687;-48
2024/01/22 12:10:22;;;;;;;2.93;0.83;;;11.50;99.90;;;;;;5099152;28;20634;-48
2024/01/22 12:12:59;;;;;;;1.67;0.53;;;11.60;99.90;;;;;;5117632;28;20294;-50
2024/01/22 12:15:26;;;;;;;8.20;1.40;;;11.60;99.90;;;;;;5100904;28;20657;-50
2024/01/22 12:17:53;;;;;;;2.33;0.80;;;11.70;99.90;;;;;;5099292;28;20692;-47
2024/01/22 12:20:25;;;;;;;3.60;1.07;;;11.80;99.90;;;;;;5098960;28;20217;-52
2024/01/22 12:23:01;;;;;;;1.20;0.80;;;11.90;99.90;;;;;;5117800;28;20674;-50
2024/01/22 12:25:38;;;;;;;8.07;1.23;;;11.90;99.90;;;;;;5117006;28;20194;-50
2024/01/22 12:28:08;;;;;;;8.10;1.13;;;12.00;99.90;;;;;;5099353;28;20283;-49
2024/01/22 12:30:34;;;;;;;16.13;1.17;;;12.00;99.90;;;;;;5117235;28;20247;-51
2024/01/22 12:33:00;;;;;;;3.20;1.07;;;12.10;99.90;;;;;;5117204;28;20215;-49
2024/01/22 12:35:25;;;;;;;8.77;1.80;;;12.00;99.90;;;;;;5116892;28;20194;-52
2024/01/22 12:37:52;;;;;;;5.73;1.27;;;12.10;99.90;;;;;;5117084;28;20170;-49
2024/01/22 12:40:19;;;;;;;3.63;0.93;;;12.10;99.90;;;;;;5098167;28;20725;-49
2024/01/22 12:42:53;;;;;;;6.47;1.20;;;12.10;99.90;;;;;;5116744;28;20537;-49
2024/01/22 12:45:21;;;;;;;5.20;1.03;;;12.10;99.90;;;;;;5099360;28;20205;-49
2024/01/22 12:47:47;;;;;;;9.57;1.20;;;12.10;99.90;;;;;;5116730;28;20675;-49
2024/01/22 12:50:15;;;;;;;6.57;1.40;;;12.00;99.90;;;;;;5116722;28;20198;-50
2024/01/22 12:52:44;;;;;;;5.40;1.20;;;12.10;99.90;;;;;;5117191;28;20176;-50
2024/01/22 12:55:11;;;;;;;10.43;1.60;;;12.00;99.90;;;;;;5116793;28;20253;-49
2024/01/22 12:57:37;;;;;;;6.83;1.73;;;12.10;99.90;;;;;;5116858;28;20178;-49
2024/01/22 13:00:05;;;;;;;9.03;1.60;;;12.00;99.90;;;;;;5116472;28;20174;-49
2024/01/22 13:02:36;;;;;;;10.63;2.30;;;12.00;99.90;;;;;;5081862;28;20186;-50
2024/01/22 13:05:03;;;;;;;9.27;1.43;;;12.00;99.90;;;;;;5098789;28;20182;-50
2024/01/22 13:07:30;;;;;;;9.23;2.37;;;12.00;99.90;;;;;;5116233;28;20171;-49